| time (UTC) | temp F | wind direction | speed knots | gust knots | rain 1hr in | rain 24hr in | rain mn in | humidity % | barometer mb |
| 20260503194550 | 57 | 229 | 19.1 | 0.0 | 0.00 | 0.00 | 0.00 | 55 | 982.3 |
| 20260503193113 | 57 | 232 | 20.0 | 0.0 | 0.00 | 0.00 | 0.00 | 55 | 982.3 |
| 20260503191552 | 57 | 237 | 19.1 | 0.0 | 0.00 | 0.00 | 0.00 | 55 | 982.3 |
| 20260503190123 | 57 | 235 | 20.0 | 0.0 | 0.00 | 0.00 | 0.00 | 55 | 982.3 |
| 20260503184551 | 57 | 237 | 19.1 | 0.0 | 0.00 | 0.00 | 0.00 | 47 | 982.9 |
| 20260503183600 | 58 | 234 | 20.0 | 0.0 | 0.00 | 0.00 | 0.00 | 47 | 982.9 |
| 20260503181550 | 58 | 236 | 19.1 | 0.0 | 0.00 | 0.00 | 0.00 | 51 | 983.1 |
| 20260503180126 | 58 | 233 | 20.0 | 0.0 | 0.00 | 0.00 | 0.00 | 51 | 983.1 |
| 20260503174549 | 58 | 233 | 19.1 | 0.0 | 0.00 | 0.00 | 0.00 | 47 | 983.7 |
| 20260503173110 | 58 | 238 | 20.0 | 0.0 | 0.00 | 0.00 | 0.00 | 47 | 983.0 |
| 20260503170119 | 57 | 236 | 19.1 | 0.0 | 0.00 | 0.00 | 0.00 | 47 | 983.0 |
| 20260503160128 | 55 | 232 | 16.5 | 0.0 | 0.00 | 0.00 | 0.00 | 52 | 982.5 |
| 20260503150124 | 53 | 242 | 13.0 | 0.0 | 0.00 | 0.00 | 0.00 | 56 | 983.5 |
| 20260503140130 | 51 | 228 | 15.6 | 0.0 | 0.00 | 0.00 | 0.00 | 59 | 983.5 |
| 20260503130123 | 44 | 228 | 10.4 | 0.0 | 0.00 | 0.00 | 0.00 | 69 | 983.9 |
| 20260503120131 | 41 | 220 | 10.4 | 0.0 | 0.00 | 0.00 | 0.00 | 71 | 984.1 |
| 20260503110123 | 38 | 221 | 9.6 | 0.0 | 0.00 | 0.00 | 0.00 | 70 | 983.2 |
| 20260503100124 | 37 | 222 | 8.7 | 0.0 | 0.00 | 0.00 | 0.00 | 70 | 983.2 |
| 20260503090120 | 36 | 215 | 7.8 | 0.0 | 0.00 | 0.00 | 0.00 | 71 | 983.3 |
| 20260503081550 | 36 | 200 | 7.8 | 0.0 | 0.00 | 0.00 | 0.00 | 69 | 983.8 |
| 20260503080116 | 36 | 198 | 7.0 | 0.0 | 0.00 | 0.00 | 0.00 | 70 | 983.3 |
| 20260503071549 | 36 | 183 | 6.1 | 0.0 | 0.00 | 0.00 | 0.00 | 69 | 984.0 |
| 20260503070119 | 36 | 176 | 6.1 | 0.0 | 0.00 | 0.00 | 0.00 | 69 | 984.0 |
| 20260503060133 | 36 | 189 | 6.1 | 0.0 | 0.00 | 0.00 | 0.00 | 68 | 984.9 |
| 20260503054550 | 37 | 180 | 5.2 | 0.0 | 0.00 | 0.00 | 0.00 | 66 | 985.4 |
| 20260503051549 | 37 | 188 | 5.2 | 0.0 | 0.00 | 0.00 | 0.00 | 69 | 985.6 |
| 20260503050119 | 36 | 189 | 4.3 | 0.0 | 0.00 | 0.00 | 0.00 | 69 | 985.6 |
| 20260503044549 | 36 | 190 | 4.3 | 0.0 | 0.00 | 0.00 | 0.00 | 67 | 985.8 |
| 20260503043109 | 36 | 195 | 4.3 | 0.0 | 0.00 | 0.00 | 0.00 | 67 | 985.3 |
| 20260503041550 | 37 | 197 | 4.3 | 0.0 | 0.00 | 0.00 | 0.00 | 67 | 985.3 |
| 20260503040121 | 37 | 194 | 4.3 | 0.0 | 0.00 | 0.00 | 0.00 | 67 | 985.3 |
| 20260503034549 | 37 | 198 | 3.5 | 0.0 | 0.00 | 0.00 | 0.00 | 64 | 986.5 |
| 20260503033110 | 37 | 205 | 4.3 | 0.0 | 0.00 | 0.00 | 0.00 | 63 | 986.6 |
| 20260503031549 | 38 | 214 | 5.2 | 0.0 | 0.00 | 0.00 | 0.00 | 63 | 986.6 |
| 20260503030120 | 38 | 219 | 5.2 | 0.0 | 0.00 | 0.00 | 0.00 | 63 | 986.6 |
| 20260503024549 | 39 | 217 | 4.3 | 0.0 | 0.00 | 0.00 | 0.00 | 58 | 987.4 |
| 20260503023109 | 39 | 220 | 4.3 | 0.0 | 0.00 | 0.00 | 0.00 | 62 | 987.1 |
| 20260503021549 | 39 | 223 | 4.3 | 0.0 | 0.00 | 0.00 | 0.00 | 62 | 987.1 |
| 20260503020119 | 39 | 228 | 4.3 | 0.0 | 0.00 | 0.00 | 0.00 | 62 | 987.1 |
| 20260503014549 | 40 | 236 | 4.3 | 0.0 | 0.00 | 0.00 | 0.00 | 55 | 986.6 |
| 20260503013107 | 40 | 239 | 4.3 | 0.0 | 0.00 | 0.00 | 0.00 | 55 | 986.6 |
| 20260503011549 | 41 | 245 | 4.3 | 0.0 | 0.00 | 0.00 | 0.00 | 55 | 986.6 |
| 20260503010118 | 41 | 255 | 4.3 | 0.0 | 0.00 | 0.00 | 0.00 | 55 | 986.6 |
| 20260503004549 | 42 | 262 | 3.5 | 0.0 | 0.00 | 0.00 | 0.00 | 49 | 987.3 |
| 20260503003103 | 43 | 261 | 3.5 | 0.0 | 0.00 | 0.00 | 0.00 | 49 | 987.5 |
| 20260503001549 | 44 | 273 | 2.6 | 0.0 | 0.00 | 0.00 | 0.00 | 49 | 987.5 |
| 20260503000121 | 44 | 285 | 3.5 | 0.0 | 0.00 | 0.00 | 0.00 | 49 | 987.5 |
| 20260502234550 | 45 | 297 | 5.2 | 0.0 | 0.00 | 0.00 | 0.00 | 39 | 987.5 |
| 20260502233102 | 46 | 296 | 5.2 | 0.0 | 0.00 | 0.00 | 0.00 | 40 | 987.5 |
| 20260502231550 | 46 | 294 | 6.1 | 0.0 | 0.00 | 0.00 | 0.00 | 40 | 987.5 |
| 20260502230117 | 46 | 293 | 7.0 | 0.0 | 0.00 | 0.00 | 0.00 | 40 | 987.5 |
| 20260502224550 | 46 | 288 | 7.8 | 0.0 | 0.00 | 0.00 | 0.00 | 39 | 987.8 |
| 20260502223108 | 47 | 289 | 8.7 | 0.0 | 0.00 | 0.00 | 0.00 | 37 | 988.6 |
| 20260502221551 | 47 | 286 | 9.6 | 0.0 | 0.00 | 0.00 | 0.00 | 37 | 988.6 |
| 20260502220117 | 47 | 287 | 9.6 | 0.0 | 0.00 | 0.00 | 0.00 | 37 | 988.6 |
| 20260502214550 | 47 | 287 | 9.6 | 0.0 | 0.00 | 0.00 | 0.00 | 42 | 988.7 |
| 20260502213109 | 47 | 285 | 9.6 | 0.0 | 0.00 | 0.00 | 0.00 | 42 | 988.3 |
| 20260502211550 | 47 | 281 | 9.6 | 0.0 | 0.00 | 0.00 | 0.00 | 42 | 988.3 |
| 20260502210119 | 47 | 280 | 9.6 | 0.0 | 0.00 | 0.00 | 0.00 | 42 | 988.3 |
| 20260502204550 | 47 | 278 | 9.6 | 0.0 | 0.00 | 0.00 | 0.00 | 42 | 988.8 |
| 20260502203108 | 47 | 276 | 9.6 | 0.0 | 0.00 | 0.00 | 0.00 | 43 | 989.2 |
| 20260502201550 | 47 | 278 | 9.6 | 0.0 | 0.00 | 0.00 | 0.00 | 43 | 989.2 |
| 20260502200116 | 47 | 277 | 10.4 | 0.0 | 0.00 | 0.00 | 0.00 | 43 | 989.2 |